Time;durP1;ratioP1;P1;durP2;ratioP2;P2;SDS_P1;SDS_P2;PMS_P1;PMS_P2;Temp;Humidity;BMP_temperature;BMP_pressure;BME280_temperature;BME280_humidity;BME280_pressure;Samples;Min_cycle;Max_cycle;Signal;HPM_P1;HPM_P2
2021/11/15 00:02:15;;;;;;;19.20;16.20;;;11.30;99.90;;;;;;10481452;28;20606;-83
2021/11/15 00:07:17;;;;;;;18.37;16.33;;;11.40;99.90;;;;;;10517764;22;20236;-78
2021/11/15 00:12:21;;;;;;;21.67;18.23;;;11.30;99.90;;;;;;10486834;28;20683;-79
2021/11/15 00:17:23;;;;;;;20.57;17.07;;;11.40;99.90;;;;;;10483727;28;20596;-79
2021/11/15 00:22:25;;;;;;;22.20;16.87;;;11.40;99.90;;;;;;10504398;28;20679;-78
2021/11/15 00:27:29;;;;;;;21.73;17.60;;;11.40;99.90;;;;;;10482982;28;20712;-79
2021/11/15 00:32:31;;;;;;;20.47;17.23;;;11.40;99.90;;;;;;10490931;28;20224;-79
2021/11/15 00:37:33;;;;;;;19.50;15.50;;;11.30;99.90;;;;;;10490916;28;20243;-79
2021/11/15 00:42:37;;;;;;;18.03;15.60;;;11.30;99.90;;;;;;10472573;28;20197;-79
2021/11/15 00:47:39;;;;;;;17.07;15.13;;;11.30;99.90;;;;;;10482904;28;20234;-79
2021/11/15 00:52:42;;;;;;;18.80;15.70;;;11.30;99.90;;;;;;10502810;28;20217;-79
2021/11/15 00:57:45;;;;;;;17.30;15.20;;;11.30;99.90;;;;;;10499020;28;20688;-79
2021/11/15 01:02:48;;;;;;;18.50;15.40;;;11.30;99.90;;;;;;10497236;28;20636;-79
2021/11/15 01:07:50;;;;;;;19.47;15.20;;;11.30;99.90;;;;;;10478955;28;20242;-79
2021/11/15 01:12:54;;;;;;;16.10;14.20;;;11.30;99.90;;;;;;10471947;28;20213;-79
2021/11/15 01:17:58;;;;;;;17.50;15.57;;;11.30;99.90;;;;;;10497625;28;20266;-78
2021/11/15 01:23:00;;;;;;;20.03;17.07;;;11.20;99.90;;;;;;10492915;28;20207;-78
2021/11/15 01:28:05;;;;;;;16.50;14.63;;;11.20;99.90;;;;;;10492202;28;20299;-79
2021/11/15 01:33:08;;;;;;;17.37;14.60;;;11.20;99.90;;;;;;10491039;28;20271;-78
2021/11/15 01:38:10;;;;;;;16.90;13.77;;;11.30;99.90;;;;;;10475764;28;20224;-78
2021/11/15 01:43:13;;;;;;;16.23;14.13;;;11.20;99.90;;;;;;10466066;28;20193;-78
2021/11/15 01:48:16;;;;;;;14.53;12.60;;;11.20;99.90;;;;;;10485880;28;20722;-79
2021/11/15 01:53:19;;;;;;;17.13;13.67;;;11.20;99.90;;;;;;10486436;28;20238;-78
2021/11/15 01:58:22;;;;;;;15.10;12.63;;;11.20;99.90;;;;;;10476288;28;20307;-79
2021/11/15 02:03:25;;;;;;;13.20;11.80;;;11.10;99.90;;;;;;10487086;28;20739;-78
2021/11/15 02:08:28;;;;;;;13.20;11.80;;;11.10;99.90;;;;;;10468605;28;20231;-79
2021/11/15 02:13:32;;;;;;;14.90;11.80;;;11.10;99.90;;;;;;10490396;28;20661;-79
2021/11/15 02:18:35;;;;;;;12.17;10.97;;;11.10;99.90;;;;;;10499584;28;20225;-79
2021/11/15 02:23:41;;;;;;;12.37;10.87;;;11.10;99.90;;;;;;10493293;28;20200;-78
2021/11/15 02:28:46;;;;;;;13.07;11.63;;;11.10;99.90;;;;;;10503448;28;20227;-79
2021/11/15 02:33:49;;;;;;;15.43;11.50;;;11.00;99.90;;;;;;10480649;28;20265;-79
2021/11/15 02:38:53;;;;;;;13.43;11.43;;;11.10;99.90;;;;;;10501090;28;20221;-79
2021/11/15 02:43:55;;;;;;;13.50;12.20;;;11.10;99.90;;;;;;10492857;28;20208;-78
2021/11/15 02:48:58;;;;;;;13.10;11.67;;;11.00;99.90;;;;;;10490866;28;20227;-79
2021/11/15 02:54:02;;;;;;;12.00;10.70;;;11.00;99.90;;;;;;10497368;28;20254;-78
2021/11/15 02:59:04;;;;;;;11.03;9.97;;;11.00;99.90;;;;;;10467823;28;20225;-79
2021/11/15 03:04:06;;;;;;;11.70;10.50;;;11.10;99.90;;;;;;10495551;28;20687;-79
2021/11/15 03:09:09;;;;;;;11.77;10.47;;;11.00;99.90;;;;;;10492970;28;20603;-78
2021/11/15 03:14:11;;;;;;;12.97;11.67;;;10.90;99.90;;;;;;10493324;28;20215;-79
2021/11/15 03:19:14;;;;;;;14.20;11.60;;;10.90;99.90;;;;;;10490464;28;20280;-79
2021/11/15 03:24:17;;;;;;;13.00;11.47;;;10.90;99.90;;;;;;10493462;28;20193;-79
2021/11/15 03:29:19;;;;;;;13.23;11.93;;;10.90;99.90;;;;;;10500890;28;20229;-79
2021/11/15 03:34:21;;;;;;;13.50;12.10;;;11.00;99.90;;;;;;10485750;28;20225;-78
2021/11/15 03:39:25;;;;;;;13.73;12.23;;;10.90;99.90;;;;;;10491460;28;20235;-79
2021/11/15 03:44:27;;;;;;;16.60;14.80;;;10.90;99.90;;;;;;10497466;28;20196;-79
2021/11/15 03:49:29;;;;;;;18.07;15.33;;;11.00;99.90;;;;;;10478778;28;20720;-79
2021/11/15 03:54:33;;;;;;;19.90;17.30;;;10.90;99.90;;;;;;10491634;28;20213;-79
2021/11/15 03:59:35;;;;;;;20.23;17.20;;;10.90;99.90;;;;;;10481726;28;20696;-79
2021/11/15 04:04:50;;;;;;;15.40;13.80;;;11.00;99.90;;;;;;10489071;28;20199;-79
2021/11/15 04:09:53;;;;;;;15.00;13.47;;;10.90;99.90;;;;;;10474487;28;20308;-79
2021/11/15 04:14:56;;;;;;;13.20;11.87;;;10.80;99.90;;;;;;10489174;28;20697;-79
2021/11/15 04:19:59;;;;;;;14.27;11.90;;;10.80;99.90;;;;;;10488884;28;20519;-79
2021/11/15 04:25:02;;;;;;;15.40;12.57;;;10.80;99.90;;;;;;10496198;28;20205;-78
2021/11/15 04:30:06;;;;;;;15.70;14.10;;;10.80;99.90;;;;;;10485612;28;20225;-80
2021/11/15 04:35:10;;;;;;;12.77;11.47;;;10.80;99.90;;;;;;10486087;28;20216;-79
2021/11/15 04:40:14;;;;;;;12.17;10.97;;;10.80;99.90;;;;;;10486572;28;20225;-80
2021/11/15 04:45:17;;;;;;;13.27;11.87;;;10.80;99.90;;;;;;10474664;28;20200;-79
2021/11/15 04:50:19;;;;;;;15.40;13.23;;;10.80;99.90;;;;;;10489507;28;20696;-79
2021/11/15 04:55:24;;;;;;;13.60;12.20;;;10.80;99.90;;;;;;10484855;28;20224;-79
2021/11/15 05:00:29;;;;;;;14.07;12.57;;;10.70;99.90;;;;;;10501203;28;20284;-79
2021/11/15 05:05:33;;;;;;;14.00;12.60;;;10.70;99.90;;;;;;10465169;28;20227;-79
2021/11/15 05:10:37;;;;;;;12.47;11.20;;;10.70;99.90;;;;;;10491292;28;20240;-79
2021/11/15 05:15:39;;;;;;;13.17;11.77;;;10.70;99.90;;;;;;10473301;28;20231;-79
2021/11/15 05:20:41;;;;;;;15.70;12.97;;;10.70;99.90;;;;;;10460951;28;20228;-79
2021/11/15 05:25:44;;;;;;;14.63;13.20;;;10.70;99.90;;;;;;10487622;28;20189;-79
2021/11/15 05:30:47;;;;;;;14.50;12.73;;;10.70;99.90;;;;;;10491935;28;20227;-78
2021/11/15 05:35:49;;;;;;;17.67;15.20;;;10.70;99.90;;;;;;10494565;28;20268;-79
2021/11/15 05:40:52;;;;;;;15.53;13.90;;;10.80;99.90;;;;;;10487450;28;20479;-79
2021/11/15 05:45:54;;;;;;;15.30;13.47;;;10.80;99.90;;;;;;10496833;28;20283;-79
2021/11/15 05:50:57;;;;;;;13.77;11.90;;;10.80;99.90;;;;;;10484167;28;20228;-79
2021/11/15 05:56:00;;;;;;;13.13;11.73;;;10.70;99.90;;;;;;10465082;28;20208;-79
2021/11/15 06:01:03;;;;;;;14.83;12.70;;;10.80;99.90;;;;;;10479312;28;20677;-79
2021/11/15 06:06:05;;;;;;;15.17;13.03;;;10.70;99.90;;;;;;10464920;28;20639;-79
2021/11/15 06:11:09;;;;;;;14.30;12.80;;;10.80;99.90;;;;;;10516573;22;20240;-82
2021/11/15 06:16:11;;;;;;;14.23;12.83;;;10.80;99.90;;;;;;10500575;28;20282;-82
2021/11/15 06:21:14;;;;;;;14.73;13.20;;;10.80;99.90;;;;;;10442098;28;20583;-81
2021/11/15 06:26:17;;;;;;;15.83;13.50;;;10.80;99.90;;;;;;10431930;28;20198;-83
2021/11/15 06:31:19;;;;;;;14.60;13.00;;;10.80;99.90;;;;;;10453378;28;20221;-83
2021/11/15 06:36:23;;;;;;;17.03;13.87;;;10.80;99.90;;;;;;10455616;28;20277;-82
2021/11/15 06:41:27;;;;;;;17.83;13.60;;;10.80;99.90;;;;;;10457370;28;20605;-83
2021/11/15 06:46:30;;;;;;;15.80;12.97;;;10.80;99.90;;;;;;10445771;28;20197;-81
2021/11/15 06:51:32;;;;;;;14.50;13.00;;;10.80;99.90;;;;;;10458351;28;20640;-83
2021/11/15 06:56:35;;;;;;;13.60;11.57;;;10.70;99.90;;;;;;10475911;28;20217;-82
2021/11/15 07:01:38;;;;;;;17.97;13.10;;;10.80;99.90;;;;;;10479098;28;20252;-82
2021/11/15 07:06:42;;;;;;;15.23;13.30;;;10.80;99.90;;;;;;10473858;28;20224;-83
2021/11/15 07:11:45;;;;;;;15.50;12.90;;;10.80;99.90;;;;;;10459843;28;20262;-82
2021/11/15 07:16:48;;;;;;;15.70;13.80;;;10.80;99.90;;;;;;10468578;28;20297;-81
2021/11/15 07:21:50;;;;;;;16.90;14.70;;;10.80;99.90;;;;;;10465275;28;20197;-83
2021/11/15 07:26:53;;;;;;;16.70;14.27;;;10.80;99.90;;;;;;10465528;28;20201;-82
2021/11/15 07:31:55;;;;;;;16.03;14.33;;;10.80;99.90;;;;;;10463208;28;20221;-81
2021/11/15 07:36:58;;;;;;;17.87;14.10;;;10.80;99.90;;;;;;10467858;28;20327;-81
2021/11/15 07:42:01;;;;;;;14.60;13.10;;;10.80;99.90;;;;;;10461339;28;20202;-82
2021/11/15 07:47:05;;;;;;;15.77;13.97;;;10.80;99.90;;;;;;10474777;28;20225;-83
2021/11/15 07:52:09;;;;;;;17.63;13.67;;;10.70;99.90;;;;;;10470828;28;20205;-82
2021/11/15 07:57:13;;;;;;;16.83;15.10;;;10.70;99.90;;;;;;10468799;28;20232;-82
2021/11/15 08:02:18;;;;;;;14.43;12.87;;;10.80;99.90;;;;;;10457776;28;20311;-82
2021/11/15 08:07:21;;;;;;;17.33;15.43;;;10.80;99.90;;;;;;10442675;28;20316;-82
2021/11/15 08:12:34;;;;;;;14.87;13.33;;;10.70;99.90;;;;;;10443459;28;20201;-82
2021/11/15 08:17:37;;;;;;;16.30;13.33;;;10.80;99.90;;;;;;10455507;28;20263;-82
2021/11/15 08:22:40;;;;;;;17.37;14.50;;;10.80;99.90;;;;;;10452579;28;20303;-82
2021/11/15 08:27:47;;;;;;;16.37;13.90;;;10.80;99.90;;;;;;10474955;22;20224;-83
2021/11/15 08:32:50;;;;;;;16.37;13.87;;;10.80;99.90;;;;;;10502471;28;20648;-82
2021/11/15 08:38:39;;;;;;;18.67;14.00;;;10.80;99.90;;;;;;10473669;28;20240;-81
2021/11/15 08:43:43;;;;;;;19.07;14.47;;;10.90;99.90;;;;;;10467795;28;20193;-83
2021/11/15 08:48:55;;;;;;;17.10;14.73;;;10.80;99.90;;;;;;10479021;28;20273;-81
2021/11/15 08:54:00;;;;;;;15.10;13.50;;;10.80;99.90;;;;;;10499812;28;20267;-82
2021/11/15 08:59:03;;;;;;;15.57;13.60;;;10.80;99.90;;;;;;10488694;28;20244;-82
2021/11/15 09:04:11;;;;;;;20.43;15.63;;;10.80;99.90;;;;;;10473374;28;20201;-81
2021/11/15 09:09:17;;;;;;;17.20;14.33;;;10.80;99.90;;;;;;10493138;28;20289;-82
2021/11/15 09:14:24;;;;;;;17.70;14.53;;;10.90;99.90;;;;;;10495582;28;20576;-81
2021/11/15 09:19:26;;;;;;;17.77;15.40;;;10.90;99.90;;;;;;10474661;28;20572;-81
2021/11/15 09:24:28;;;;;;;16.87;14.27;;;10.90;99.90;;;;;;10492480;28;20221;-82
2021/11/15 09:29:31;;;;;;;17.67;15.83;;;11.00;99.90;;;;;;10474449;28;20594;-82
2021/11/15 09:34:35;;;;;;;16.40;14.63;;;10.90;99.90;;;;;;10494830;28;20216;-81
2021/11/15 09:39:37;;;;;;;15.33;13.70;;;11.00;99.90;;;;;;10498631;28;20227;-81
2021/11/15 09:44:41;;;;;;;16.57;14.80;;;11.00;99.90;;;;;;10492575;28;20193;-80
2021/11/15 09:49:43;;;;;;;15.63;14.07;;;11.00;99.90;;;;;;10488729;28;20232;-80
2021/11/15 09:54:46;;;;;;;15.47;13.73;;;11.00;99.90;;;;;;10491835;28;20212;-80
2021/11/15 09:59:50;;;;;;;14.00;12.47;;;11.00;99.90;;;;;;10493462;28;20258;-81
2021/11/15 10:04:53;;;;;;;14.77;13.30;;;11.00;99.90;;;;;;10485129;28;20201;-81
2021/11/15 10:09:56;;;;;;;15.20;13.60;;;11.00;99.90;;;;;;10491923;28;20265;-81
2021/11/15 10:15:06;;;;;;;16.23;14.63;;;11.10;99.90;;;;;;10486198;28;20270;-81
2021/11/15 10:20:09;;;;;;;16.47;14.70;;;11.10;99.90;;;;;;10486045;28;20283;-82
2021/11/15 10:25:11;;;;;;;17.07;13.50;;;11.10;99.90;;;;;;10493725;28;20199;-81
2021/11/15 10:30:15;;;;;;;16.37;13.57;;;11.10;99.90;;;;;;10504549;28;20238;-81
2021/11/15 10:35:17;;;;;;;16.40;14.43;;;11.10;99.90;;;;;;10503124;28;20388;-81
2021/11/15 10:40:26;;;;;;;15.33;13.73;;;11.10;99.90;;;;;;10501101;28;20222;-80
2021/11/15 10:45:35;;;;;;;14.83;13.30;;;11.10;99.90;;;;;;10482845;28;20200;-80
2021/11/15 10:50:48;;;;;;;17.00;15.20;;;11.10;99.90;;;;;;10478062;28;20221;-81
2021/11/15 10:56:07;;;;;;;16.50;14.80;;;11.10;99.90;;;;;;10506578;28;20259;-81
2021/11/15 11:01:11;;;;;;;16.03;14.33;;;11.10;99.90;;;;;;10505903;28;20216;-81
2021/11/15 11:06:16;;;;;;;18.40;16.50;;;11.10;99.90;;;;;;10486465;28;20378;-81
2021/11/15 11:11:28;;;;;;;17.70;15.90;;;11.10;99.90;;;;;;10503778;28;20224;-81
2021/11/15 11:16:47;;;;;;;18.83;16.20;;;11.10;99.90;;;;;;10499932;28;20658;-81
2021/11/15 11:27:08;;;;;;;20.07;17.90;;;11.00;99.90;;;;;;10507010;28;20216;-84
2021/11/15 11:32:14;;;;;;;20.30;18.17;;;11.00;99.90;;;;;;10500922;28;20200;-81
2021/11/15 11:37:23;;;;;;;23.17;19.60;;;11.00;99.90;;;;;;10484985;28;20622;-83
2021/11/15 11:42:26;;;;;;;21.60;19.03;;;11.10;99.90;;;;;;10511226;28;20212;-83
2021/11/15 11:47:31;;;;;;;19.97;17.97;;;11.10;99.90;;;;;;10499692;28;20221;-81
2021/11/15 11:52:39;;;;;;;21.03;18.67;;;11.10;99.90;;;;;;10503059;28;20556;-81
2021/11/15 11:57:42;;;;;;;19.67;17.37;;;11.10;99.90;;;;;;10491828;28;20577;-81
2021/11/15 12:02:46;;;;;;;22.43;19.80;;;11.00;99.90;;;;;;10496138;28;20568;-81
2021/11/15 12:07:50;;;;;;;20.50;18.30;;;11.00;99.90;;;;;;10489328;28;20217;-81
2021/11/15 12:12:58;;;;;;;19.23;17.10;;;11.00;99.90;;;;;;10509902;28;20560;-81
2021/11/15 12:18:15;;;;;;;19.80;17.70;;;11.00;99.90;;;;;;10503639;28;20216;-82
2021/11/15 12:23:17;;;;;;;19.83;17.83;;;10.90;99.90;;;;;;10522958;28;20212;-82
2021/11/15 12:28:29;;;;;;;19.90;17.90;;;10.90;99.90;;;;;;10531194;28;20269;-84
2021/11/15 12:33:33;;;;;;;19.33;16.93;;;10.90;99.90;;;;;;10513646;28;20328;-82
2021/11/15 12:38:49;;;;;;;24.17;17.80;;;11.00;99.90;;;;;;10504317;28;20269;-82
2021/11/15 12:44:25;;;;;;;19.93;17.87;;;11.00;99.90;;;;;;10513508;28;20231;-82
2021/11/15 12:49:36;;;;;;;23.20;19.10;;;11.00;99.90;;;;;;10497740;28;20247;-81
2021/11/15 12:54:40;;;;;;;21.97;18.77;;;11.00;99.90;;;;;;10513738;28;20320;-84
2021/11/15 12:59:42;;;;;;;22.13;18.20;;;11.00;99.90;;;;;;10503283;28;20254;-83
2021/11/15 13:04:46;;;;;;;20.43;18.17;;;11.00;99.90;;;;;;10535791;28;20201;-82
2021/11/15 13:09:49;;;;;;;20.90;18.80;;;11.00;99.90;;;;;;10497604;28;20223;-83
2021/11/15 13:14:51;;;;;;;19.67;17.63;;;11.00;99.90;;;;;;10508966;28;20216;-83
2021/11/15 13:19:56;;;;;;;21.00;18.80;;;11.00;99.90;;;;;;10500274;28;20220;-83
2021/11/15 13:24:59;;;;;;;20.70;18.80;;;11.00;99.90;;;;;;10510934;28;20645;-82
2021/11/15 13:30:04;;;;;;;20.97;18.77;;;11.10;99.90;;;;;;10512857;28;20328;-83
2021/11/15 13:35:08;;;;;;;21.23;19.10;;;11.10;99.90;;;;;;10504647;28;20245;-82
2021/11/15 13:40:11;;;;;;;20.37;18.20;;;11.20;99.90;;;;;;10513011;28;20764;-82
2021/11/15 13:45:13;;;;;;;20.60;18.43;;;11.20;99.90;;;;;;10492329;28;20199;-83
2021/11/15 13:50:17;;;;;;;22.87;19.47;;;11.10;99.90;;;;;;10500219;28;20225;-82
2021/11/15 13:55:20;;;;;;;23.53;21.07;;;11.10;99.90;;;;;;10497199;28;20227;-82
2021/11/15 14:00:23;;;;;;;21.43;19.33;;;11.20;99.90;;;;;;10509794;28;20307;-82
2021/11/15 14:05:26;;;;;;;24.40;21.80;;;11.10;99.90;;;;;;10509777;28;20185;-82
2021/11/15 14:10:29;;;;;;;23.33;20.90;;;11.10;99.90;;;;;;10505454;28;20220;-82
2021/11/15 14:15:36;;;;;;;24.50;21.60;;;11.10;99.90;;;;;;10513187;28;20273;-82
2021/11/15 14:20:39;;;;;;;22.17;19.90;;;11.00;99.90;;;;;;10480105;28;20228;-82
2021/11/15 14:25:42;;;;;;;21.50;19.30;;;10.90;99.90;;;;;;10491631;28;20212;-82
2021/11/15 14:30:45;;;;;;;21.10;18.80;;;10.90;99.90;;;;;;10497121;28;20256;-82
2021/11/15 14:35:48;;;;;;;23.93;21.37;;;10.90;99.90;;;;;;10486452;28;20224;-82
2021/11/15 14:40:51;;;;;;;20.30;18.27;;;10.90;99.90;;;;;;10474225;28;20340;-81
2021/11/15 14:45:54;;;;;;;20.93;18.73;;;10.90;99.90;;;;;;10484892;28;20201;-82
2021/11/15 14:50:58;;;;;;;23.73;19.87;;;10.90;99.90;;;;;;10496997;28;20220;-82
2021/11/15 14:56:02;;;;;;;21.33;19.23;;;10.90;99.90;;;;;;10471872;28;20236;-82
2021/11/15 15:01:05;;;;;;;19.83;17.17;;;10.90;99.90;;;;;;10477433;28;20232;-82
2021/11/15 15:06:09;;;;;;;20.20;17.07;;;10.90;99.90;;;;;;10474798;28;20731;-81
2021/11/15 15:11:11;;;;;;;21.10;18.90;;;10.90;99.90;;;;;;10493762;28;20220;-82
2021/11/15 15:16:13;;;;;;;19.90;17.80;;;10.90;99.90;;;;;;10486577;28;20221;-82
2021/11/15 15:21:17;;;;;;;19.53;17.57;;;10.90;99.90;;;;;;10474288;28;20228;-82
2021/11/15 15:26:19;;;;;;;20.50;18.40;;;10.90;99.90;;;;;;10494337;28;20616;-82
2021/11/15 15:31:22;;;;;;;19.23;17.13;;;10.90;99.90;;;;;;10493991;28;20236;-82
2021/11/15 15:36:26;;;;;;;19.83;17.17;;;10.90;99.90;;;;;;10492160;28;20299;-82
2021/11/15 15:41:30;;;;;;;19.93;17.90;;;10.90;99.90;;;;;;10461678;28;20216;-82
2021/11/15 15:46:32;;;;;;;20.90;18.80;;;10.90;99.90;;;;;;10474836;28;20620;-82
2021/11/15 15:51:36;;;;;;;20.80;18.67;;;10.80;99.90;;;;;;10492091;28;20236;-82
2021/11/15 15:56:39;;;;;;;22.10;19.90;;;10.90;99.90;;;;;;10488008;28;20236;-82
2021/11/15 16:01:41;;;;;;;21.30;19.10;;;10.80;99.90;;;;;;10491062;28;20232;-82
2021/11/15 16:07:10;;;;;;;23.10;20.70;;;10.80;99.90;;;;;;10504196;28;20196;-81
2021/11/15 16:12:39;;;;;;;22.43;20.20;;;10.90;99.90;;;;;;10504699;28;20211;-81
2021/11/15 16:17:42;;;;;;;21.53;19.33;;;10.80;99.90;;;;;;10491358;28;20772;-82
2021/11/15 16:22:46;;;;;;;23.17;20.77;;;10.80;99.90;;;;;;10490628;28;20205;-81
2021/11/15 16:27:48;;;;;;;24.50;21.90;;;10.80;99.90;;;;;;10485797;28;20670;-82
2021/11/15 16:32:50;;;;;;;22.73;20.43;;;10.80;99.90;;;;;;10484970;28;20331;-81
2021/11/15 16:37:54;;;;;;;23.87;21.47;;;10.70;99.90;;;;;;10477245;28;20680;-82
2021/11/15 16:42:56;;;;;;;21.83;19.53;;;10.80;99.90;;;;;;10490322;28;20495;-82
2021/11/15 16:47:58;;;;;;;24.60;21.90;;;10.70;99.90;;;;;;10479106;28;20688;-81
2021/11/15 16:53:02;;;;;;;23.03;20.70;;;10.70;99.90;;;;;;10480801;28;20254;-82
2021/11/15 16:58:04;;;;;;;24.10;21.63;;;10.70;99.90;;;;;;10485583;28;20232;-81
2021/11/15 17:03:08;;;;;;;25.70;22.23;;;10.70;99.90;;;;;;10483861;28;20205;-81
2021/11/15 17:08:14;;;;;;;24.27;21.67;;;10.60;99.90;;;;;;10483714;28;20228;-81
2021/11/15 17:13:20;;;;;;;24.93;22.33;;;10.70;99.90;;;;;;10464798;28;20212;-82
2021/11/15 17:18:24;;;;;;;24.30;21.80;;;10.60;99.90;;;;;;10488536;28;20247;-82
2021/11/15 17:23:28;;;;;;;24.90;22.30;;;10.60;99.90;;;;;;10482374;28;20204;-82
2021/11/15 17:28:30;;;;;;;25.07;22.47;;;10.60;99.90;;;;;;10474259;28;20319;-82
2021/11/15 17:33:33;;;;;;;25.57;22.83;;;10.70;99.90;;;;;;10496594;28;20664;-82
2021/11/15 17:38:36;;;;;;;27.30;23.63;;;10.70;99.90;;;;;;10495373;28;20262;-83
2021/11/15 17:43:39;;;;;;;27.50;24.27;;;10.70;99.90;;;;;;10496972;28;20204;-81
2021/11/15 17:48:41;;;;;;;25.80;22.37;;;10.70;99.90;;;;;;10492099;28;20666;-83
2021/11/15 17:53:56;;;;;;;27.60;24.73;;;10.70;99.90;;;;;;10471220;28;20208;-83
2021/11/15 17:59:13;;;;;;;30.83;23.10;;;10.60;99.90;;;;;;10476544;28;20259;-83
2021/11/15 18:04:15;;;;;;;27.17;24.27;;;10.60;99.90;;;;;;10504635;28;20196;-83
2021/11/15 18:09:20;;;;;;;29.27;26.17;;;10.50;99.90;;;;;;10519624;22;20224;-81
2021/11/15 18:14:25;;;;;;;28.30;24.23;;;10.50;99.90;;;;;;10490969;28;20200;-81
2021/11/15 18:19:27;;;;;;;27.87;24.43;;;10.50;99.90;;;;;;10489923;28;20228;-81
2021/11/15 18:24:31;;;;;;;29.07;24.53;;;10.50;99.90;;;;;;10483070;28;20682;-81
2021/11/15 18:29:37;;;;;;;29.43;23.63;;;10.50;99.90;;;;;;10482585;28;20220;-81
2021/11/15 18:34:40;;;;;;;28.70;24.43;;;10.40;99.90;;;;;;10484790;28;20205;-82
2021/11/15 18:39:45;;;;;;;27.37;24.20;;;10.40;99.90;;;;;;10492664;28;20590;-82
2021/11/15 18:44:51;;;;;;;27.60;23.43;;;10.40;99.90;;;;;;10494420;28;20193;-82
2021/11/15 18:49:54;;;;;;;26.67;22.20;;;10.40;99.90;;;;;;10491896;28;20228;-82
2021/11/15 18:54:57;;;;;;;30.27;23.93;;;10.40;99.90;;;;;;10483701;28;20303;-82
2021/11/15 19:00:01;;;;;;;26.33;22.73;;;10.40;99.90;;;;;;10501526;28;20315;-83
2021/11/15 19:05:08;;;;;;;30.03;25.13;;;10.40;99.90;;;;;;10501079;28;20691;-81
2021/11/15 19:10:14;;;;;;;27.07;24.17;;;10.40;99.90;;;;;;10495663;28;20232;-81
2021/11/15 19:15:17;;;;;;;35.70;31.77;;;10.40;99.90;;;;;;10498128;28;20217;-81
2021/11/15 19:20:19;;;;;;;29.77;24.10;;;10.40;99.90;;;;;;10499914;28;20280;-82
2021/11/15 19:25:23;;;;;;;29.40;25.27;;;10.40;99.90;;;;;;10486721;28;20200;-82
2021/11/15 19:30:26;;;;;;;32.57;26.40;;;10.40;99.90;;;;;;10509344;28;20618;-82
2021/11/15 19:35:28;;;;;;;28.13;24.50;;;10.40;99.90;;;;;;10498577;28;20220;-83
2021/11/15 19:40:34;;;;;;;29.60;24.23;;;10.40;99.90;;;;;;10486158;28;20227;-82
2021/11/15 19:45:37;;;;;;;33.60;26.83;;;10.40;99.90;;;;;;10475903;28;20638;-81
2021/11/15 19:50:43;;;;;;;33.03;26.47;;;10.30;99.90;;;;;;10499765;28;20243;-82
2021/11/15 19:55:47;;;;;;;29.77;24.10;;;10.30;99.90;;;;;;10483765;28;20291;-82
2021/11/15 20:00:52;;;;;;;33.60;26.17;;;10.40;99.90;;;;;;10467694;28;20246;-82
2021/11/15 20:05:54;;;;;;;31.93;26.20;;;10.30;99.90;;;;;;10515330;28;20587;-84
2021/11/15 20:11:00;;;;;;;32.57;25.87;;;10.30;99.90;;;;;;10486130;28;20228;-82
2021/11/15 20:16:02;;;;;;;31.33;25.43;;;10.40;99.90;;;;;;10503077;28;20295;-83
2021/11/15 20:21:05;;;;;;;29.23;24.67;;;10.40;99.90;;;;;;10499663;28;20209;-82
2021/11/15 20:26:09;;;;;;;31.90;27.40;;;10.40;99.90;;;;;;10493516;28;20770;-82
2021/11/15 20:31:11;;;;;;;36.77;27.50;;;10.40;99.90;;;;;;10499557;28;20217;-83
2021/11/15 20:36:15;;;;;;;35.30;26.93;;;10.40;99.90;;;;;;10475708;28;20235;-83
2021/11/15 20:41:19;;;;;;;29.63;25.17;;;10.40;99.90;;;;;;10470025;28;20691;-84
2021/11/15 20:46:25;;;;;;;30.70;26.90;;;10.30;99.90;;;;;;10502384;28;20262;-83
2021/11/15 20:51:29;;;;;;;32.60;27.07;;;10.30;99.90;;;;;;10477931;28;20267;-82
2021/11/15 20:56:36;;;;;;;36.47;27.20;;;10.30;99.90;;;;;;10504061;28;20239;-83
2021/11/15 21:01:38;;;;;;;35.07;26.57;;;10.30;99.90;;;;;;10501349;28;20274;-83
2021/11/15 21:06:42;;;;;;;36.17;29.67;;;10.30;99.90;;;;;;10466688;28;20219;-83
2021/11/15 21:11:46;;;;;;;34.83;29.27;;;10.40;99.90;;;;;;10494686;28;20235;-82
2021/11/15 21:16:50;;;;;;;34.10;27.23;;;10.30;99.90;;;;;;10479385;28;20330;-83
2021/11/15 21:21:58;;;;;;;37.27;29.63;;;10.40;99.90;;;;;;10504117;28;20224;-82
2021/11/15 21:27:01;;;;;;;39.33;30.50;;;10.30;99.90;;;;;;10501575;28;20200;-83
2021/11/15 21:32:05;;;;;;;36.30;27.80;;;10.20;99.90;;;;;;10458618;28;20599;-82
2021/11/15 21:37:09;;;;;;;34.40;27.40;;;10.20;99.90;;;;;;10491139;28;20226;-82
2021/11/15 21:42:13;;;;;;;32.87;25.07;;;10.20;99.90;;;;;;10492201;28;20201;-83
2021/11/15 21:47:18;;;;;;;32.07;25.80;;;10.20;99.90;;;;;;10484280;28;20223;-83
2021/11/15 21:52:20;;;;;;;36.30;28.63;;;10.20;99.90;;;;;;10486325;28;20200;-83
2021/11/15 21:57:23;;;;;;;37.00;27.63;;;10.20;99.90;;;;;;10507449;28;20595;-84
2021/11/15 22:02:29;;;;;;;32.97;26.77;;;10.20;99.90;;;;;;10474467;28;20204;-83
2021/11/15 22:07:31;;;;;;;32.40;25.97;;;10.20;99.90;;;;;;10484040;28;20232;-83
2021/11/15 22:12:35;;;;;;;32.60;26.07;;;10.30;99.90;;;;;;10485246;28;20571;-83
2021/11/15 22:17:42;;;;;;;35.70;26.47;;;10.20;99.90;;;;;;10480167;28;20266;-83
2021/11/15 22:22:44;;;;;;;34.77;26.97;;;10.30;99.90;;;;;;10481894;28;20205;-83
2021/11/15 22:27:47;;;;;;;30.10;25.00;;;10.30;99.90;;;;;;10486711;28;20485;-84
2021/11/15 22:32:50;;;;;;;34.03;26.13;;;10.20;99.90;;;;;;10473233;28;20237;-83
2021/11/15 22:37:52;;;;;;;35.97;26.03;;;10.30;99.90;;;;;;10502311;28;20595;-83
2021/11/15 22:42:56;;;;;;;34.40;27.40;;;10.20;99.90;;;;;;10488415;28;20213;-83
2021/11/15 22:47:58;;;;;;;35.43;27.10;;;10.20;99.90;;;;;;10505745;28;20224;-83
2021/11/15 22:53:00;;;;;;;33.40;26.33;;;10.20;99.90;;;;;;10483661;28;20209;-83
2021/11/15 22:58:07;;;;;;;30.07;24.47;;;10.20;99.90;;;;;;10487705;28;20224;-83
2021/11/15 23:03:10;;;;;;;31.77;26.30;;;10.20;99.90;;;;;;10478282;28;20475;-83
2021/11/15 23:08:17;;;;;;;32.40;25.47;;;10.20;99.90;;;;;;10483027;28;20216;-84
2021/11/15 23:13:23;;;;;;;33.03;26.13;;;10.20;99.90;;;;;;10498033;28;20196;-83
2021/11/15 23:18:27;;;;;;;34.40;27.50;;;10.20;99.90;;;;;;10471015;28;20636;-83
2021/11/15 23:23:30;;;;;;;33.30;24.50;;;10.20;99.90;;;;;;10502539;28;20227;-83
2021/11/15 23:28:36;;;;;;;33.10;25.80;;;10.20;99.90;;;;;;10482681;28;20216;-83
2021/11/15 23:33:40;;;;;;;33.27;25.07;;;10.20;99.90;;;;;;10501887;28;20205;-84
2021/11/15 23:38:43;;;;;;;34.40;25.30;;;10.20;99.90;;;;;;10503723;28;20239;-83
2021/11/15 23:43:47;;;;;;;33.03;26.50;;;10.30;99.90;;;;;;10500896;28;20270;-84
2021/11/15 23:48:49;;;;;;;32.60;25.87;;;10.30;99.90;;;;;;10499039;28;20710;-83
2021/11/15 23:53:51;;;;;;;33.27;25.47;;;10.30;99.90;;;;;;10501179;28;20203;-84
2021/11/15 23:58:55;;;;;;;29.27;25.20;;;10.40;99.90;;;;;;10482884;28;20234;-83
